Punta Angamos — CBPN — position and weather

sailwx.info

Track history (hours):
 
Tides and Currents Weather Stations Pressure Air Temp Water Temp Dewpoint Dewpoint Depression Visibility Wind Speed Wind Dir Waves Ship Positions

Punta Angamos

Last reported at 2018-Jun-17 17:02 UTC. Time now 2018-Jun-22 23:03 UTC.
Position S 32°45' W 071°30'.

Length 182 m; draft 7.8 m.

Type: Ship (hazmat cat A). MMSI: 725017900.

Date/timePositionNaut miles runAvg speedWind from/ knotsBaromVisibWave heightAir tempDewpointWater temp
2018-Jun-17 17:02S 32°45' W 071°30'0 1.9
2018-Jun-17 16:59S 32°45' W 071°30'1 1.9
2018-Jun-17 16:30S 32°46' W 071°31'0 0.7
2018-Jun-17 15:58S 32°46' W 071°31'0 0.0
2018-Jun-17 15:28S 32°46' W 071°31'0 0.1
2018-Jun-17 14:58S 32°46' W 071°31'0 0.0
2018-Jun-17 14:28S 32°46' W 071°31'0 0.0
2018-Jun-17 13:58S 32°46' W 071°31'0 0.1
2018-Jun-17 13:28S 32°46' W 071°31'0 0.0
2018-Jun-17 12:58S 32°46' W 071°31'0 0.1
2018-Jun-17 12:28S 32°46' W 071°31'0 0.0
2018-Jun-17 11:58S 32°46' W 071°31'0 0.0
2018-Jun-17 11:28S 32°46' W 071°31'0 0.0
2018-Jun-17 09:52S 32°46' W 071°31'0 0.0
2018-Jun-17 09:28S 32°46' W 071°31'0 0.0
2018-Jun-17 08:55S 32°46' W 071°31'0 0.0
2018-Jun-17 08:28S 32°46' W 071°31'0 0.0
2018-Jun-17 07:58S 32°46' W 071°31'0 0.0
2018-Jun-17 07:19S 32°46' W 071°31'0 0.0
2018-Jun-17 05:37S 32°46' W 071°31'0 0.1
2018-Jun-17 05:10S 32°46' W 071°31'0 0.0
2018-Jun-17 04:58S 32°46' W 071°31'0 0.1
2018-Jun-17 04:25S 32°46' W 071°31'0 0.0
2018-Jun-17 03:55S 32°46' W 071°31'0 0.0
2018-Jun-17 03:28S 32°46' W 071°31'0 0.0
2018-Jun-17 02:52S 32°46' W 071°31'0 0.0
2018-Jun-17 02:28S 32°46' W 071°31'0 0.0
2018-Jun-17 01:58S 32°46' W 071°31'0 0.0
2018-Jun-17 01:25S 32°46' W 071°31'0 0.0
2018-Jun-16 23:22S 32°46' W 071°31'0 0.0
2018-Jun-16 22:49S 32°46' W 071°31'0 0.0
2018-Jun-16 22:25S 32°46' W 071°31'0 0.1
2018-Jun-16 21:34S 32°46' W 071°31'0 0.0
2018-Jun-16 21:25S 32°46' W 071°31'1 0.1
2018-Jun-16 13:07S 32°45' W 071°30'0 0.0
2018-Jun-16 03:43S 32°45' W 071°31'0 0.0
2018-Jun-15 21:13S 32°45' W 071°30'1 0.3
2018-Jun-15 18:24S 32°46' W 071°31'0 0.0
2018-Jun-15 17:45S 32°46' W 071°31'0 0.1
2018-Jun-15 17:30S 32°46' W 071°31'0 0.0
2018-Jun-15 14:09S 32°46' W 071°31'0 0.1
2018-Jun-15 14:00S 32°46' W 071°31'0 0.1
2018-Jun-15 13:09S 32°46' W 071°31'0 0.1
2018-Jun-15 12:57S 32°46' W 071°31'0 0.0
2018-Jun-15 11:45S 32°46' W 071°31'0 0.1
2018-Jun-15 11:30S 32°46' W 071°31'0 0.0
2018-Jun-15 09:42S 32°46' W 071°31'0 0.0
2018-Jun-15 09:12S 32°46' W 071°31'0 0.1
2018-Jun-15 08:57S 32°46' W 071°31'0 0.0
2018-Jun-15 05:33S 32°46' W 071°31'0 0.1
2018-Jun-15 05:12S 32°46' W 071°31'0 0.1
2018-Jun-15 04:48S 32°46' W 071°31'0 0.0
2018-Jun-15 04:21S 32°46' W 071°31'0 0.0
2018-Jun-15 03:57S 32°46' W 071°31'0 0.0
2018-Jun-15 03:27S 32°46' W 071°31'0 0.0
2018-Jun-15 02:51S 32°46' W 071°31'0 0.0
2018-Jun-15 02:27S 32°46' W 071°31'0 0.0
2018-Jun-15 02:00S 32°46' W 071°31'0 0.0
2018-Jun-15 01:24S 32°46' W 071°31'0 0.0
2018-Jun-15 01:00S 32°46' W 071°31'0 0.0
2018-Jun-14 23:18S 32°46' W 071°31'0 0.2
2018-Jun-14 22:54S 32°46' W 071°31'0 0.2
2018-Jun-14 22:30S 32°46' W 071°31'0 0.0
2018-Jun-14 22:00S 32°46' W 071°31'0 0.0
2018-Jun-14 21:30S 32°46' W 071°31'0 0.0
2018-Jun-14 19:12S 32°46' W 071°31'1 0.1
2018-Jun-13 22:55S 32°45' W 071°31'1 2.1
2018-Jun-13 22:29S 32°45' W 071°32'3 7.0
2018-Jun-13 22:00S 32°45' W 071°36'510.2
2018-Jun-13 21:30S 32°50' W 071°37'510.8
2018-Jun-13 21:00S 32°56' W 071°37'6 0.6
2018-Jun-13 11:58S 33°01' W 071°36'0 0.0
2018-Jun-12 23:49S 33°01' W 071°36'0 0.0
2018-Jun-12 23:28S 33°01' W 071°36'0 0.0
2018-Jun-12 22:22S 33°01' W 071°36'0 0.0
2018-Jun-11 16:58S 33°01' W 071°36'0 0.0
2018-Jun-11 09:58S 33°01' W 071°36'0 0.0
2018-Jun-11 07:52S 33°01' W 071°36'0 0.0
2018-Jun-11 07:07S 33°01' W 071°36'0 0.0
2018-Jun-10 16:46S 33°01' W 071°36'0 0.2
2018-Jun-10 16:28S 33°01' W 071°36'0 0.0
2018-Jun-10 15:55S 33°01' W 071°36'0 0.0
2018-Jun-10 15:22S 33°01' W 071°36'0 0.2
2018-Jun-10 14:58S 33°01' W 071°36'0 0.1
2018-Jun-10 14:28S 33°01' W 071°36'0 0.0
2018-Jun-10 13:22S 33°01' W 071°36'0 0.0
2018-Jun-10 12:58S 33°01' W 071°36'0 0.0
2018-Jun-10 12:28S 33°01' W 071°36'0 0.0
2018-Jun-10 11:46S 33°01' W 071°36'0 0.0
2018-Jun-10 03:19S 33°01' W 071°36'0 0.0
2018-Jun-09 17:10S 33°01' W 071°36'0 0.0
2018-Jun-09 14:28S 33°01' W 071°36'0 0.0
2018-Jun-08 20:22S 33°01' W 071°36'3 0.3
2018-Jun-08 08:12S 32°59' W 071°38'1 6.7
2018-Jun-08 08:00S 32°58' W 071°39'5 9.3
2018-Jun-08 07:29S 33°01' W 071°43'  
Track history (hours):
 
Tides and Currents Weather Stations Pressure Air Temp Water Temp Dewpoint Dewpoint Depression Visibility Wind Speed Wind Dir Waves Ship Positions

Punta Angamos

Last reported at 2018-Jun-17 17:02 UTC. Time now 2018-Jun-22 23:03 UTC.
Position S 32°45' W 071°30'.

Length 182 m; draft 7.8 m.

Type: Ship (hazmat cat A). MMSI: 725017900.

Date/timePositionNaut miles runAvg speedWind from/ knotsBaromVisibWave heightAir tempDewpointWater temp
2018-Jun-17 17:02S 32°45' W 071°30'0 1.9
2018-Jun-17 16:59S 32°45' W 071°30'1 1.9
2018-Jun-17 16:30S 32°46' W 071°31'0 0.7
2018-Jun-17 15:58S 32°46' W 071°31'0 0.0
2018-Jun-17 15:28S 32°46' W 071°31'0 0.1
2018-Jun-17 14:58S 32°46' W 071°31'0 0.0
2018-Jun-17 14:28S 32°46' W 071°31'0 0.0
2018-Jun-17 13:58S 32°46' W 071°31'0 0.1
2018-Jun-17 13:28S 32°46' W 071°31'0 0.0
2018-Jun-17 12:58S 32°46' W 071°31'0 0.1
2018-Jun-17 12:28S 32°46' W 071°31'0 0.0
2018-Jun-17 11:58S 32°46' W 071°31'0 0.0
2018-Jun-17 11:28S 32°46' W 071°31'0 0.0
2018-Jun-17 09:52S 32°46' W 071°31'0 0.0
2018-Jun-17 09:28S 32°46' W 071°31'0 0.0
2018-Jun-17 08:55S 32°46' W 071°31'0 0.0
2018-Jun-17 08:28S 32°46' W 071°31'0 0.0
2018-Jun-17 07:58S 32°46' W 071°31'0 0.0
2018-Jun-17 07:19S 32°46' W 071°31'0 0.0
2018-Jun-17 05:37S 32°46' W 071°31'0 0.1
2018-Jun-17 05:10S 32°46' W 071°31'0 0.0
2018-Jun-17 04:58S 32°46' W 071°31'0 0.1
2018-Jun-17 04:25S 32°46' W 071°31'0 0.0
2018-Jun-17 03:55S 32°46' W 071°31'0 0.0
2018-Jun-17 03:28S 32°46' W 071°31'0 0.0
2018-Jun-17 02:52S 32°46' W 071°31'0 0.0
2018-Jun-17 02:28S 32°46' W 071°31'0 0.0
2018-Jun-17 01:58S 32°46' W 071°31'0 0.0
2018-Jun-17 01:25S 32°46' W 071°31'0 0.0
2018-Jun-16 23:22S 32°46' W 071°31'0 0.0
2018-Jun-16 22:49S 32°46' W 071°31'0 0.0
2018-Jun-16 22:25S 32°46' W 071°31'0 0.1
2018-Jun-16 21:34S 32°46' W 071°31'0 0.0
2018-Jun-16 21:25S 32°46' W 071°31'1 0.1
2018-Jun-16 13:07S 32°45' W 071°30'0 0.0
2018-Jun-16 03:43S 32°45' W 071°31'0 0.0
2018-Jun-15 21:13S 32°45' W 071°30'1 0.3
2018-Jun-15 18:24S 32°46' W 071°31'0 0.0
2018-Jun-15 17:45S 32°46' W 071°31'0 0.1
2018-Jun-15 17:30S 32°46' W 071°31'0 0.0
2018-Jun-15 14:09S 32°46' W 071°31'0 0.1
2018-Jun-15 14:00S 32°46' W 071°31'0 0.1
2018-Jun-15 13:09S 32°46' W 071°31'0 0.1
2018-Jun-15 12:57S 32°46' W 071°31'0 0.0
2018-Jun-15 11:45S 32°46' W 071°31'0 0.1
2018-Jun-15 11:30S 32°46' W 071°31'0 0.0
2018-Jun-15 09:42S 32°46' W 071°31'0 0.0
2018-Jun-15 09:12S 32°46' W 071°31'0 0.1
2018-Jun-15 08:57S 32°46' W 071°31'0 0.0
2018-Jun-15 05:33S 32°46' W 071°31'0 0.1
2018-Jun-15 05:12S 32°46' W 071°31'0 0.1
2018-Jun-15 04:48S 32°46' W 071°31'0 0.0
2018-Jun-15 04:21S 32°46' W 071°31'0 0.0
2018-Jun-15 03:57S 32°46' W 071°31'0 0.0
2018-Jun-15 03:27S 32°46' W 071°31'0 0.0
2018-Jun-15 02:51S 32°46' W 071°31'0 0.0
2018-Jun-15 02:27S 32°46' W 071°31'0 0.0
2018-Jun-15 02:00S 32°46' W 071°31'0 0.0
2018-Jun-15 01:24S 32°46' W 071°31'0 0.0
2018-Jun-15 01:00S 32°46' W 071°31'0 0.0
2018-Jun-14 23:18S 32°46' W 071°31'0 0.2
2018-Jun-14 22:54S 32°46' W 071°31'0 0.2
2018-Jun-14 22:30S 32°46' W 071°31'0 0.0
2018-Jun-14 22:00S 32°46' W 071°31'0 0.0
2018-Jun-14 21:30S 32°46' W 071°31'0 0.0
2018-Jun-14 19:12S 32°46' W 071°31'1 0.1
2018-Jun-13 22:55S 32°45' W 071°31'1 2.1
2018-Jun-13 22:29S 32°45' W 071°32'3 7.0
2018-Jun-13 22:00S 32°45' W 071°36'510.2
2018-Jun-13 21:30S 32°50' W 071°37'510.8
2018-Jun-13 21:00S 32°56' W 071°37'6 0.6
2018-Jun-13 11:58S 33°01' W 071°36'0 0.0
2018-Jun-12 23:49S 33°01' W 071°36'0 0.0
2018-Jun-12 23:28S 33°01' W 071°36'0 0.0
2018-Jun-12 22:22S 33°01' W 071°36'0 0.0
2018-Jun-11 16:58S 33°01' W 071°36'0 0.0
2018-Jun-11 09:58S 33°01' W 071°36'0 0.0
2018-Jun-11 07:52S 33°01' W 071°36'0 0.0
2018-Jun-11 07:07S 33°01' W 071°36'0 0.0
2018-Jun-10 16:46S 33°01' W 071°36'0 0.2
2018-Jun-10 16:28S 33°01' W 071°36'0 0.0
2018-Jun-10 15:55S 33°01' W 071°36'0 0.0
2018-Jun-10 15:22S 33°01' W 071°36'0 0.2
2018-Jun-10 14:58S 33°01' W 071°36'0 0.1
2018-Jun-10 14:28S 33°01' W 071°36'0 0.0
2018-Jun-10 13:22S 33°01' W 071°36'0 0.0
2018-Jun-10 12:58S 33°01' W 071°36'0 0.0
2018-Jun-10 12:28S 33°01' W 071°36'0 0.0
2018-Jun-10 11:46S 33°01' W 071°36'0 0.0
2018-Jun-10 03:19S 33°01' W 071°36'0 0.0
2018-Jun-09 17:10S 33°01' W 071°36'0 0.0
2018-Jun-09 14:28S 33°01' W 071°36'0 0.0
2018-Jun-08 20:22S 33°01' W 071°36'3 0.3
2018-Jun-08 08:12S 32°59' W 071°38'1 6.7
2018-Jun-08 08:00S 32°58' W 071°39'5 9.3
2018-Jun-08 07:29S 33°01' W 071°43'  

Dump ship's entire track history